Time;durP1;ratioP1;P1;durP2;ratioP2;P2;SDS_P1;SDS_P2;PMS_P1;PMS_P2;Temp;Humidity;BMP_temperature;BMP_pressure;BME280_temperature;BME280_humidity;BME280_pressure;Samples;Min_cycle;Max_cycle;Signal;HPM_P1;HPM_P2
2020/12/15 00:01:53;;;;;;;19.50;2.70;;;;;;;10.62;71.84;98911.72;4993746;28;20023;-81
2020/12/15 00:04:19;;;;;;;16.10;2.78;;;;;;;10.69;72.07;98915.44;4994638;28;20035;-81
2020/12/15 00:06:45;;;;;;;15.27;3.25;;;;;;;10.77;72.05;98916.53;4977237;28;20432;-81
2020/12/15 00:09:10;;;;;;;20.42;3.25;;;;;;;10.78;71.96;98918.19;4994073;28;20052;-81
2020/12/15 00:11:35;;;;;;;16.70;2.80;;;;;;;10.65;72.16;98913.25;4976252;28;20023;-82
2020/12/15 00:14:01;;;;;;;18.20;2.67;;;;;;;10.74;72.10;98916.81;4997329;28;20022;-82
2020/12/15 00:16:26;;;;;;;24.35;3.25;;;;;;;10.65;72.40;98916.69;5014351;28;20117;-82
2020/12/15 00:18:51;;;;;;;19.90;2.70;;;;;;;10.65;72.05;98921.94;5014009;28;20109;-81
2020/12/15 00:21:24;;;;;;;22.63;3.03;;;;;;;10.52;72.36;98918.78;5014098;28;20032;-81
2020/12/15 00:23:52;;;;;;;13.18;2.47;;;;;;;10.58;72.50;98915.59;5012080;28;20360;-82
2020/12/15 00:26:18;;;;;;;16.77;2.95;;;;;;;10.65;72.02;98908.81;5014023;28;20030;-82
2020/12/15 00:28:43;;;;;;;22.40;4.07;;;;;;;10.59;71.57;98914.66;5013950;28;20026;-82
2020/12/15 00:31:09;;;;;;;20.08;2.70;;;;;;;10.55;72.22;98912.44;5013815;28;20044;-82
2020/12/15 00:33:34;;;;;;;16.02;2.38;;;;;;;10.34;73.09;98913.41;5013696;28;20026;-82
2020/12/15 00:36:00;;;;;;;12.63;3.13;;;;;;;10.45;72.87;98912.47;5013675;28;20064;-82
2020/12/15 00:38:25;;;;;;;16.40;2.25;;;;;;;10.48;73.06;98918.22;5003890;28;20375;-82
2020/12/15 00:40:51;;;;;;;17.23;2.95;;;;;;;10.54;72.57;98908.97;4994170;28;20026;-82
2020/12/15 00:43:16;;;;;;;13.55;2.22;;;;;;;10.61;72.39;98910.09;4994316;28;20037;-81
2020/12/15 00:45:41;;;;;;;19.73;3.17;;;;;;;10.55;72.70;98907.19;4993702;28;20022;-81
2020/12/15 00:48:07;;;;;;;15.52;2.55;;;;;;;10.46;72.77;98916.72;4993902;28;20429;-81
2020/12/15 00:50:32;;;;;;;22.90;1.88;;;;;;;10.37;72.28;98909.69;4993867;28;20026;-81
2020/12/15 00:52:57;;;;;;;16.05;2.20;;;;;;;10.49;72.67;98913.84;4994755;28;20080;-81
2020/12/15 00:55:23;;;;;;;15.95;2.08;;;;;;;10.45;72.30;98912.47;4993746;28;20026;-81
2020/12/15 00:57:48;;;;;;;15.32;2.20;;;;;;;10.50;72.10;98907.59;5008379;28;20030;-82
2020/12/15 01:00:14;;;;;;;9.13;1.70;;;;;;;10.31;72.78;98909.28;4995597;28;20041;-81
2020/12/15 01:02:40;;;;;;;14.38;2.15;;;;;;;10.45;72.32;98918.53;5013056;28;20026;-82
2020/12/15 01:05:06;;;;;;;13.10;2.15;;;;;;;10.48;71.92;98907.72;5013128;28;20037;-81
2020/12/15 01:07:31;;;;;;;19.55;2.03;;;;;;;10.22;72.57;98909.25;5013047;28;20036;-81
2020/12/15 01:09:57;;;;;;;20.27;2.65;;;;;;;10.30;73.06;98918.13;5013117;28;20026;-81
2020/12/15 01:12:23;;;;;;;13.85;1.83;;;;;;;10.30;72.32;98910.25;5011377;28;20056;-81
2020/12/15 01:14:48;;;;;;;13.68;2.20;;;;;;;10.23;72.99;98914.38;5013088;28;20472;-81
2020/12/15 01:17:14;;;;;;;11.63;2.22;;;;;;;10.32;72.54;98923.22;5013333;28;20030;-81
2020/12/15 01:19:40;;;;;;;16.92;2.25;;;;;;;10.28;72.29;98927.88;5013001;28;20365;-81
2020/12/15 01:22:06;;;;;;;16.05;2.05;;;;;;;10.37;71.58;98930.66;5013001;28;20037;-81
2020/12/15 01:24:31;;;;;;;16.55;2.10;;;;;;;10.30;71.31;98933.03;5012673;28;20113;-81
2020/12/15 01:26:56;;;;;;;11.80;1.73;;;;;;;10.11;72.63;98928.56;4985018;28;20026;-81
2020/12/15 01:29:22;;;;;;;17.98;2.30;;;;;;;10.06;72.52;98939.47;4995795;28;20030;-81
2020/12/15 01:31:47;;;;;;;17.00;2.65;;;;;;;10.16;71.94;98947.34;4995149;28;20030;-81
2020/12/15 01:34:12;;;;;;;18.50;3.65;;;;;;;10.09;72.31;98941.00;5012566;28;20053;-82
2020/12/15 01:36:38;;;;;;;12.65;2.40;;;;;;;10.11;72.14;98947.78;5012587;28;20029;-81
2020/12/15 01:39:03;;;;;;;15.02;1.95;;;;;;;10.05;72.55;98943.09;5012562;28;20081;-81
2020/12/15 01:41:29;;;;;;;10.65;1.95;;;;;;;10.04;72.37;98943.22;5012595;28;20022;-81
2020/12/15 01:43:59;;;;;;;15.48;2.47;;;;;;;9.93;72.66;98945.00;5012109;28;20048;-81
2020/12/15 01:46:26;;;;;;;18.10;2.08;;;;;;;9.97;72.24;98944.72;5011630;28;20088;-81
2020/12/15 01:48:55;;;;;;;10.57;1.73;;;;;;;9.88;72.50;98943.75;5012435;28;20125;-81
2020/12/15 01:51:22;;;;;;;10.68;2.13;;;;;;;10.05;72.08;98950.94;5012419;28;20420;-81
2020/12/15 01:53:48;;;;;;;11.95;1.95;;;;;;;9.93;72.21;98945.00;5012474;28;20416;-82
2020/12/15 01:56:13;;;;;;;18.05;1.45;;;;;;;9.92;72.14;98943.34;5008359;28;20050;-81
2020/12/15 01:58:40;;;;;;;12.85;3.13;;;;;;;9.91;72.05;98952.19;4992604;28;20493;-81
2020/12/15 02:01:07;;;;;;;16.17;1.63;;;;;;;9.82;72.42;98947.72;4992562;28;20041;-81
2020/12/15 02:03:33;;;;;;;8.80;1.70;;;;;;;9.84;71.94;98951.06;4992622;28;20049;-81
2020/12/15 02:05:59;;;;;;;11.50;2.03;;;;;;;9.82;71.78;98952.16;4992483;28;20121;-81
2020/12/15 02:08:24;;;;;;;13.40;1.80;;;;;;;9.82;72.27;98955.59;4992734;28;20446;-81
2020/12/15 02:10:50;;;;;;;10.13;1.63;;;;;;;9.80;72.37;98970.63;4994885;28;20464;-81
2020/12/15 02:13:15;;;;;;;16.38;2.30;;;;;;;9.79;72.76;98968.97;5012022;28;20025;-81
2020/12/15 02:15:41;;;;;;;13.40;2.05;;;;;;;9.78;72.64;98969.13;5012470;28;20026;-81
2020/12/15 02:18:07;;;;;;;14.57;2.05;;;;;;;9.89;72.16;98975.09;5012144;28;20030;-81
2020/12/15 02:20:32;;;;;;;20.92;3.70;;;;;;;9.77;72.71;98978.75;5012179;28;20057;-81
2020/12/15 02:22:58;;;;;;;15.20;2.20;;;;;;;9.88;72.52;98976.03;5012008;28;20026;-81
2020/12/15 02:25:23;;;;;;;8.43;1.70;;;;;;;9.93;72.64;98986.94;5011247;28;20034;-82
2020/12/15 02:27:49;;;;;;;14.73;1.75;;;;;;;9.96;71.82;98991.09;5011400;28;20464;-81
2020/12/15 02:30:14;;;;;;;12.65;2.08;;;;;;;9.93;72.46;98986.09;5011989;28;20038;-82
2020/12/15 02:32:40;;;;;;;10.55;1.58;;;;;;;9.88;71.98;98989.13;5012048;28;20101;-81
2020/12/15 02:35:05;;;;;;;16.52;2.15;;;;;;;9.97;72.25;98992.72;5012033;28;20144;-81
2020/12/15 02:37:31;;;;;;;16.08;1.95;;;;;;;9.95;72.47;98993.84;5011837;28;20491;-81
2020/12/15 02:40:01;;;;;;;16.65;1.70;;;;;;;9.93;72.62;98994.81;5011877;28;20057;-81
2020/12/15 02:42:30;;;;;;;16.10;2.78;;;;;;;10.00;72.63;99002.16;4978251;28;20109;-81
2020/12/15 02:44:57;;;;;;;11.02;1.85;;;;;;;10.03;72.17;98997.47;4992109;28;20480;-81
2020/12/15 02:47:22;;;;;;;13.50;1.80;;;;;;;9.91;72.69;98999.38;4992269;28;20045;-81
2020/12/15 02:49:48;;;;;;;16.15;2.45;;;;;;;9.89;72.57;98998.69;4992240;28;20026;-81
2020/12/15 02:52:14;;;;;;;17.63;2.03;;;;;;;10.03;72.67;99004.47;4992220;28;20031;-82
2020/12/15 02:54:40;;;;;;;13.65;1.77;;;;;;;10.00;72.35;99010.00;4992199;28;20058;-82
2020/12/15 02:57:06;;;;;;;17.45;1.80;;;;;;;10.03;72.51;99005.34;5008892;28;20030;-81
2020/12/15 02:59:31;;;;;;;13.48;1.77;;;;;;;10.04;72.88;99012.22;5011522;28;20427;-81
2020/12/15 03:01:56;;;;;;;14.25;2.22;;;;;;;10.00;72.67;99010.00;5011665;28;20067;-81
2020/12/15 03:04:22;;;;;;;20.30;2.28;;;;;;;10.12;71.71;99012.38;5013558;28;20068;-81
2020/12/15 03:06:48;;;;;;;13.32;1.70;;;;;;;10.06;72.48;99014.72;5015315;28;20034;-81
2020/12/15 03:09:14;;;;;;;16.77;1.95;;;;;;;10.00;72.27;99020.50;5015247;28;20036;-81
2020/12/15 03:11:39;;;;;;;15.65;2.78;;;;;;;10.06;72.17;99022.56;5014059;28;20022;-81
2020/12/15 03:14:05;;;;;;;20.63;3.53;;;;;;;10.01;72.47;99022.13;5015263;28;20026;-82
2020/12/15 03:16:30;;;;;;;15.93;2.05;;;;;;;9.91;72.85;99024.72;5015605;28;20030;-81
2020/12/15 03:18:55;;;;;;;14.30;2.28;;;;;;;9.89;72.74;99022.28;5015223;28;20022;-81
2020/12/15 03:21:23;;;;;;;19.35;1.85;;;;;;;9.91;72.47;99025.59;4997647;28;20022;-81
2020/12/15 03:23:49;;;;;;;12.82;2.10;;;;;;;9.87;73.07;99024.19;5014989;28;20545;-81
2020/12/15 03:26:14;;;;;;;28.15;3.38;;;;;;;9.84;72.61;99024.44;5013294;28;20120;-81
2020/12/15 03:28:39;;;;;;;12.93;2.25;;;;;;;9.88;73.03;99031.09;5014593;28;20061;-81
2020/12/15 03:31:05;;;;;;;12.20;2.10;;;;;;;9.93;72.71;99015.78;4997493;28;20467;-81
2020/12/15 03:33:30;;;;;;;15.98;3.15;;;;;;;9.83;72.00;99020.16;5014930;28;20109;-81
2020/12/15 03:35:56;;;;;;;16.63;2.50;;;;;;;9.77;72.54;99020.69;5015252;28;20022;-81
2020/12/15 03:38:21;;;;;;;16.73;2.60;;;;;;;9.86;72.50;99029.56;5014940;28;20033;-81
2020/12/15 03:40:46;;;;;;;18.60;2.35;;;;;;;9.78;72.61;99027.59;5010296;28;20053;-81
2020/12/15 03:43:12;;;;;;;23.25;3.85;;;;;;;9.72;73.29;99030.75;4998359;28;20019;-81
2020/12/15 03:45:43;;;;;;;15.32;2.60;;;;;;;9.73;72.95;99027.16;4996079;28;20109;-81
2020/12/15 03:48:10;;;;;;;13.50;2.17;;;;;;;9.75;72.85;99019.19;4995075;28;20028;-81
2020/12/15 03:50:36;;;;;;;11.57;2.33;;;;;;;9.81;72.46;99019.47;4994936;28;20077;-81
2020/12/15 03:53:01;;;;;;;11.25;1.58;;;;;;;9.87;72.74;99029.44;4994868;28;20022;-81
2020/12/15 03:55:26;;;;;;;16.75;2.40;;;;;;;9.86;72.71;99033.00;4996007;28;20041;-81
2020/12/15 03:57:52;;;;;;;18.77;2.47;;;;;;;9.86;72.38;99033.00;4995327;28;20061;-81
2020/12/15 04:00:18;;;;;;;14.43;2.30;;;;;;;9.85;72.46;99026.13;4995210;28;20475;-81
2020/12/15 04:02:44;;;;;;;19.50;2.00;;;;;;;9.78;72.78;99034.66;4977270;28;20026;-81
2020/12/15 04:05:09;;;;;;;22.08;2.70;;;;;;;9.86;72.72;99033.00;4994914;28;20037;-81
2020/12/15 04:07:35;;;;;;;21.45;2.78;;;;;;;9.84;72.59;99026.25;4994730;28;20030;-81
2020/12/15 04:10:00;;;;;;;14.13;2.20;;;;;;;9.63;73.15;99026.31;4995859;28;20053;-81
2020/12/15 04:12:26;;;;;;;22.23;2.60;;;;;;;9.76;73.22;99034.78;4977225;28;20026;-81
2020/12/15 04:14:51;;;;;;;13.40;2.30;;;;;;;9.80;72.61;99033.53;4976714;28;20034;-81
2020/12/15 04:17:16;;;;;;;21.92;2.85;;;;;;;9.70;73.05;99033.50;4994301;28;20037;-81
2020/12/15 04:19:41;;;;;;;18.58;2.80;;;;;;;9.65;72.88;99030.44;4977065;28;20030;-81
2020/12/15 04:22:07;;;;;;;12.73;2.25;;;;;;;9.72;73.20;99038.63;4976901;28;20034;-81
2020/12/15 04:24:33;;;;;;;16.55;2.08;;;;;;;9.71;73.13;99039.56;4994337;28;20297;-81
2020/12/15 04:26:58;;;;;;;23.00;2.45;;;;;;;9.78;72.81;99045.13;4978027;28;20038;-81
2020/12/15 04:29:24;;;;;;;27.55;3.55;;;;;;;9.70;72.60;99043.19;4994456;28;20029;-81
2020/12/15 04:31:50;;;;;;;13.80;1.88;;;;;;;9.64;72.99;99044.53;4994315;28;20475;-81
2020/12/15 04:34:15;;;;;;;25.80;3.22;;;;;;;9.56;72.71;99051.38;4994314;28;20045;-81
2020/12/15 04:36:41;;;;;;;14.00;1.67;;;;;;;9.60;73.17;99053.63;4976697;28;20038;-81
2020/12/15 04:39:06;;;;;;;13.00;2.15;;;;;;;9.60;73.17;99060.66;4994237;28;20030;-81
2020/12/15 04:41:32;;;;;;;16.52;2.83;;;;;;;9.59;72.92;99056.34;5010280;28;20040;-81
2020/12/15 04:43:59;;;;;;;13.50;1.55;;;;;;;9.51;73.75;99059.63;5013439;28;20479;-81
2020/12/15 04:46:27;;;;;;;9.05;1.38;;;;;;;9.51;73.07;99057.00;4996009;28;20029;-81
2020/12/15 04:49:07;;;;;;;16.63;2.20;;;;;;;9.49;72.93;99070.22;5013580;28;20422;-81
2020/12/15 04:51:54;;;;;;;10.20;2.38;;;;;;;9.35;73.02;99060.09;5013619;28;20025;-81
2020/12/15 04:54:28;;;;;;;15.75;1.80;;;;;;;9.34;73.60;99066.31;5012279;28;20024;-81
2020/12/15 04:57:00;;;;;;;19.30;2.15;;;;;;;9.32;73.71;99065.59;4993870;28;20100;-81
2020/12/15 04:59:28;;;;;;;17.92;2.25;;;;;;;9.28;74.13;99064.19;4993807;28;20076;-81
2020/12/15 05:01:56;;;;;;;25.70;2.95;;;;;;;9.19;73.23;99068.41;4994802;28;20054;-81
2020/12/15 05:04:24;;;;;;;14.23;2.03;;;;;;;9.19;74.11;99080.69;4993399;28;20030;-81
2020/12/15 05:06:53;;;;;;;26.95;1.88;;;;;;;9.12;74.56;99070.72;4993564;28;20030;-81
2020/12/15 05:09:28;;;;;;;19.10;1.90;;;;;;;9.18;74.57;99073.78;4993764;28;20022;-81
2020/12/15 05:11:53;;;;;;;19.23;1.95;;;;;;;9.08;73.28;99074.56;4993713;28;20113;-81
2020/12/15 05:14:19;;;;;;;16.73;2.08;;;;;;;9.02;74.03;99068.97;4993451;28;20105;-81
2020/12/15 05:16:45;;;;;;;9.25;1.38;;;;;;;8.98;73.64;99068.41;4998517;28;20033;-81
2020/12/15 05:19:10;;;;;;;17.35;1.70;;;;;;;8.88;74.56;99070.13;5012871;28;20037;-81
2020/12/15 05:21:35;;;;;;;7.18;1.50;;;;;;;8.86;74.25;99075.47;4995378;28;20018;-81
2020/12/15 05:24:01;;;;;;;9.63;1.40;;;;;;;8.81;74.62;99077.66;5013099;28;20433;-81
2020/12/15 05:26:27;;;;;;;19.30;2.40;;;;;;;8.64;73.16;99083.44;5012584;28;20426;-81
2020/12/15 05:29:07;;;;;;;9.30;1.58;;;;;;;8.59;72.35;99082.97;4995263;28;20048;-81
2020/12/15 05:31:33;;;;;;;18.48;1.83;;;;;;;8.62;74.66;99082.72;4989941;28;20053;-81
2020/12/15 05:33:59;;;;;;;11.95;2.45;;;;;;;8.69;74.83;99089.97;4993101;28;20076;-81
2020/12/15 05:36:25;;;;;;;19.13;1.83;;;;;;;8.76;74.56;99090.28;4993220;28;20026;-81
2020/12/15 05:39:09;;;;;;;15.65;1.60;;;;;;;8.83;74.78;99093.25;4993047;28;20026;-81
2020/12/15 05:41:35;;;;;;;13.45;1.45;;;;;;;8.72;75.09;99079.22;4993131;28;20034;-81
2020/12/15 05:44:01;;;;;;;26.00;2.63;;;;;;;8.78;75.25;99082.31;4992866;28;20173;-81
2020/12/15 05:46:28;;;;;;;14.95;2.00;;;;;;;8.82;75.50;99089.78;4994053;28;20365;-81
2020/12/15 05:49:02;;;;;;;12.88;1.98;;;;;;;8.84;74.62;99082.63;4992865;28;20480;-81
2020/12/15 05:51:38;;;;;;;12.90;2.05;;;;;;;8.80;74.82;99096.09;4992973;28;20030;-81
2020/12/15 05:54:11;;;;;;;16.33;1.70;;;;;;;8.79;74.63;99100.50;4993234;28;20033;-81
2020/12/15 05:56:38;;;;;;;9.43;1.30;;;;;;;8.72;74.49;99099.34;4992668;28;20124;-81
2020/12/15 05:59:18;;;;;;;11.25;1.48;;;;;;;8.70;74.92;99109.09;4992854;28;20018;-81
2020/12/15 06:01:46;;;;;;;16.70;1.90;;;;;;;8.61;74.97;99108.06;4992767;28;20018;-80
2020/12/15 06:04:13;;;;;;;16.58;2.78;;;;;;;8.47;74.55;99103.94;4975179;28;20026;-81
2020/12/15 06:06:39;;;;;;;20.92;2.47;;;;;;;8.47;74.46;99105.69;4992562;28;20037;-81
2020/12/15 06:09:08;;;;;;;17.23;1.67;;;;;;;8.44;75.06;99108.59;4992764;28;20105;-81
2020/12/15 06:11:34;;;;;;;12.40;1.77;;;;;;;8.43;75.28;99125.22;5010656;28;20018;-81
2020/12/15 06:14:00;;;;;;;10.85;1.52;;;;;;;8.40;75.35;99105.34;5012162;28;20475;-81
2020/12/15 06:16:25;;;;;;;7.75;1.50;;;;;;;8.39;74.79;99118.53;5012610;28;20132;-81
2020/12/15 06:18:51;;;;;;;8.80;2.15;;;;;;;8.35;74.74;99120.56;5012131;28;20065;-81
2020/12/15 06:21:17;;;;;;;11.95;3.10;;;;;;;8.26;75.15;99129.16;4994572;28;20030;-81
2020/12/15 06:23:44;;;;;;;11.98;2.28;;;;;;;8.21;75.21;99124.25;5011876;28;20065;-81
2020/12/15 06:26:09;;;;;;;9.48;1.70;;;;;;;8.25;74.42;99133.53;4994127;28;20428;-81
2020/12/15 06:28:34;;;;;;;14.88;1.95;;;;;;;8.19;75.57;99134.00;4992490;28;20058;-80
2020/12/15 06:31:00;;;;;;;15.90;2.33;;;;;;;8.21;75.85;99136.50;4992338;28;20491;-82
2020/12/15 06:33:35;;;;;;;15.15;2.00;;;;;;;8.25;75.31;99138.75;4974939;28;20449;-80
2020/12/15 06:36:01;;;;;;;22.63;1.88;;;;;;;8.15;76.61;99129.97;4992137;28;20035;-81
2020/12/15 06:38:27;;;;;;;17.00;2.20;;;;;;;8.28;75.74;99133.28;4992579;28;20089;-81
2020/12/15 06:40:53;;;;;;;17.85;2.00;;;;;;;8.45;76.21;99144.22;5013662;28;20038;-82
2020/12/15 06:43:29;;;;;;;15.13;3.15;;;;;;;8.49;75.52;99143.03;5015772;28;20037;-83
2020/12/15 06:46:07;;;;;;;19.80;2.85;;;;;;;8.53;75.78;99153.16;5015864;28;20080;-81
2020/12/15 06:48:35;;;;;;;10.68;2.05;;;;;;;8.55;75.19;99155.66;5016358;28;20498;-83
2020/12/15 06:51:00;;;;;;;14.90;2.00;;;;;;;8.52;75.56;99161.13;5015783;28;20030;-83
2020/12/15 06:53:26;;;;;;;15.68;2.38;;;;;;;8.54;75.59;99161.81;5015383;28;20414;-83
2020/12/15 06:55:59;;;;;;;18.75;2.72;;;;;;;8.59;75.66;99166.69;5015705;28;20084;-83
2020/12/15 06:58:24;;;;;;;9.65;1.40;;;;;;;8.59;74.77;99166.69;5015757;28;20106;-83
2020/12/15 07:00:50;;;;;;;12.60;3.65;;;;;;;8.50;74.68;99168.25;4997601;28;20113;-83
2020/12/15 07:03:17;;;;;;;9.63;1.35;;;;;;;8.48;74.62;99168.38;5011583;28;20132;-83
2020/12/15 07:05:43;;;;;;;12.80;1.75;;;;;;;8.31;74.45;99151.38;5006570;28;20387;-83
2020/12/15 07:08:11;;;;;;;10.15;1.98;;;;;;;8.39;74.36;99158.59;5015409;28;20022;-83
2020/12/15 07:10:41;;;;;;;10.25;1.45;;;;;;;8.39;75.17;99163.81;5014901;28;20373;-83
2020/12/15 07:13:07;;;;;;;11.73;1.75;;;;;;;8.23;73.26;99168.59;5015176;28;20064;-83
2020/12/15 07:15:34;;;;;;;10.57;1.83;;;;;;;8.05;74.93;99165.63;5013742;28;20045;-83
2020/12/15 07:18:02;;;;;;;5.40;1.08;;;;;;;8.05;74.66;99176.91;5058721;22;20037;-89
2020/12/15 07:20:27;;;;;;;11.30;1.42;;;;;;;8.09;75.76;99172.28;5050058;28;20072;-89
2020/12/15 07:22:53;;;;;;;15.93;2.42;;;;;;;8.18;75.46;99174.19;5016505;28;20067;-89
2020/12/15 07:25:20;;;;;;;22.33;2.92;;;;;;;8.18;77.18;99176.81;5034597;28;20030;-88
2020/12/15 07:27:47;;;;;;;22.35;2.17;;;;;;;8.18;75.15;99176.00;5016725;28;20033;-89
2020/12/15 07:30:14;;;;;;;13.60;2.22;;;;;;;8.21;74.40;99178.34;5028703;28;20034;-89
2020/12/15 07:32:41;;;;;;;14.23;2.13;;;;;;;8.26;74.85;99190.13;5017576;28;20057;-89
2020/12/15 07:35:07;;;;;;;9.73;1.15;;;;;;;8.23;74.30;99192.13;5033813;28;20029;-89
2020/12/15 07:37:41;;;;;;;11.25;1.73;;;;;;;8.14;74.99;99184.06;5034334;28;20030;-88
2020/12/15 07:40:11;;;;;;;14.63;2.03;;;;;;;8.18;75.30;99187.28;5034540;28;20080;-89
2020/12/15 07:42:37;;;;;;;9.80;1.80;;;;;;;8.13;74.60;99192.00;5034091;28;20026;-89
2020/12/15 07:45:08;;;;;;;10.98;2.00;;;;;;;8.12;75.69;99190.38;5015635;28;20026;-89
2020/12/15 07:47:42;;;;;;;9.80;3.10;;;;;;;8.22;75.83;99191.31;5034299;28;20030;-89
2020/12/15 07:50:09;;;;;;;10.25;2.08;;;;;;;8.24;74.52;99189.41;5033226;28;20063;-89
2020/12/15 07:52:39;;;;;;;9.15;1.42;;;;;;;8.31;74.58;99200.22;4999001;28;20037;-89
2020/12/15 07:55:09;;;;;;;17.85;2.20;;;;;;;8.27;74.81;99204.03;5034096;28;20036;-89
2020/12/15 07:57:37;;;;;;;19.55;2.58;;;;;;;8.25;74.41;99204.13;5033873;28;20029;-88
2020/12/15 08:00:16;;;;;;;12.13;2.03;;;;;;;8.08;74.15;99202.00;5012740;28;20092;-88
2020/12/15 08:02:45;;;;;;;6.57;1.15;;;;;;;8.15;74.90;99208.41;5016105;28;20033;-89
2020/12/15 08:05:16;;;;;;;25.05;2.15;;;;;;;8.07;75.05;99210.78;5015665;28;20022;-89
2020/12/15 08:07:52;;;;;;;5.22;0.90;;;;;;;8.05;74.27;99217.91;5033952;28;20038;-89
2020/12/15 08:10:24;;;;;;;9.52;1.65;;;;;;;8.01;74.33;99213.88;5033992;28;20021;-89
2020/12/15 08:12:51;;;;;;;12.05;1.60;;;;;;;7.79;74.78;99209.44;5033945;28;20375;-88
2020/12/15 08:15:16;;;;;;;11.02;1.45;;;;;;;7.87;74.65;99223.59;5025165;28;20123;-87
2020/12/15 08:17:45;;;;;;;9.18;1.85;;;;;;;7.85;74.71;99230.72;5041549;23;20499;-82
2020/12/15 08:20:11;;;;;;;16.58;1.77;;;;;;;7.94;75.99;99237.88;5030631;28;20053;-84
2020/12/15 08:22:44;;;;;;;15.57;3.92;;;;;;;7.94;75.56;99234.44;5029901;28;20021;-84
2020/12/15 08:25:12;;;;;;;10.05;1.50;;;;;;;7.95;74.93;99252.59;5031664;28;20155;-84
2020/12/15 08:27:37;;;;;;;6.30;1.38;;;;;;;7.90;74.94;99249.50;5032983;28;20025;-84
2020/12/15 08:30:19;;;;;;;9.15;1.40;;;;;;;7.92;75.01;99260.69;5015261;28;20130;-84
2020/12/15 08:32:49;;;;;;;6.70;1.27;;;;;;;7.92;74.29;99257.25;5029160;28;20116;-84
2020/12/15 08:35:24;;;;;;;9.70;1.38;;;;;;;7.93;74.91;99262.31;5033453;28;20044;-84
2020/12/15 08:37:58;;;;;;;9.20;1.20;;;;;;;7.90;75.06;99253.91;5033522;28;20021;-84
2020/12/15 08:40:24;;;;;;;9.63;1.55;;;;;;;7.87;74.01;99270.63;5031505;28;20025;-84
2020/12/15 08:42:53;;;;;;;9.15;2.83;;;;;;;7.95;74.98;99268.28;5017062;28;20026;-84
2020/12/15 08:45:25;;;;;;;8.75;1.52;;;;;;;7.92;74.35;99275.53;5033385;28;20029;-84
2020/12/15 08:47:51;;;;;;;5.03;1.20;;;;;;;7.91;75.01;99292.97;5033116;28;20033;-84
2020/12/15 08:50:16;;;;;;;9.50;1.67;;;;;;;7.93;74.47;99285.03;5033298;28;20025;-84
2020/12/15 08:52:43;;;;;;;9.27;1.77;;;;;;;8.05;75.02;99285.88;5032688;28;20033;-84
2020/12/15 08:55:09;;;;;;;7.43;1.90;;;;;;;8.10;74.92;99291.63;5032491;28;20033;-84
2020/12/15 08:57:35;;;;;;;19.92;1.75;;;;;;;8.15;74.83;99289.47;5033094;28;20105;-84
2020/12/15 09:00:15;;;;;;;10.77;2.22;;;;;;;8.26;74.70;99291.28;5033013;28;20432;-84
2020/12/15 09:02:42;;;;;;;10.63;1.50;;;;;;;8.35;74.30;99285.31;5032430;28;20025;-84
2020/12/15 09:05:10;;;;;;;15.07;1.95;;;;;;;8.50;74.63;99291.22;5014921;28;20025;-84
2020/12/15 09:07:39;;;;;;;12.02;1.92;;;;;;;8.62;74.73;99298.09;5032848;28;20029;-83
2020/12/15 09:10:22;;;;;;;10.50;1.45;;;;;;;8.80;74.33;99289.78;5027748;28;20392;-83
2020/12/15 09:12:48;;;;;;;12.15;1.92;;;;;;;8.84;74.29;99291.19;5032037;28;20391;-83
2020/12/15 09:15:14;;;;;;;8.50;1.35;;;;;;;8.85;74.10;99285.84;5032500;28;20025;-83
2020/12/15 09:17:40;;;;;;;6.70;1.13;;;;;;;8.86;73.64;99292.72;5033131;28;20152;-84
2020/12/15 09:20:08;;;;;;;11.88;1.83;;;;;;;8.83;74.00;99289.56;5031734;28;20104;-84
2020/12/15 09:22:36;;;;;;;4.45;1.23;;;;;;;8.71;74.14;99289.56;5029500;28;20469;-82
2020/12/15 09:25:05;;;;;;;14.77;2.13;;;;;;;8.76;74.44;99290.97;5030081;28;20084;-82
2020/12/15 09:27:33;;;;;;;8.68;1.35;;;;;;;8.86;74.09;99290.13;5031717;28;20025;-82
2020/12/15 09:29:58;;;;;;;7.05;1.25;;;;;;;8.93;74.55;99285.25;5031481;28;20025;-82
2020/12/15 09:32:31;;;;;;;9.35;1.83;;;;;;;9.13;74.28;99302.00;5032443;28;20112;-82
2020/12/15 09:34:56;;;;;;;13.05;1.92;;;;;;;9.17;73.10;99295.56;5030656;28;20037;-82
2020/12/15 09:37:22;;;;;;;12.77;1.83;;;;;;;9.31;73.30;99294.44;5032288;28;20025;-82
2020/12/15 09:39:47;;;;;;;14.77;1.98;;;;;;;9.38;73.48;99306.09;5031624;28;20032;-82
2020/12/15 09:42:13;;;;;;;10.55;2.28;;;;;;;9.44;73.57;99295.13;5032426;28;20423;-82
2020/12/15 09:44:38;;;;;;;13.05;1.90;;;;;;;9.58;73.76;99288.75;5032405;28;20383;-82
2020/12/15 09:47:04;;;;;;;19.08;2.50;;;;;;;9.72;73.38;99301.56;5032354;28;20025;-82
2020/12/15 09:49:29;;;;;;;9.95;2.25;;;;;;;9.98;72.21;99316.13;5031925;28;20442;-82
2020/12/15 09:51:55;;;;;;;15.82;2.40;;;;;;;10.19;73.04;99319.56;5032494;28;20084;-82
2020/12/15 09:54:20;;;;;;;11.70;2.08;;;;;;;10.56;72.46;99313.03;5031077;28;20030;-82
2020/12/15 09:56:45;;;;;;;13.98;2.40;;;;;;;10.82;71.54;99319.50;5032429;28;20025;-82
2020/12/15 09:59:12;;;;;;;16.85;2.45;;;;;;;11.12;70.71;99320.44;5032629;28;20025;-82
2020/12/15 10:01:41;;;;;;;19.67;2.17;;;;;;;11.03;69.60;99322.06;5031632;28;20014;-82
2020/12/15 10:04:07;;;;;;;17.55;2.85;;;;;;;10.96;70.07;99336.69;5059788;28;20034;-82
2020/12/15 10:06:32;;;;;;;20.20;2.10;;;;;;;10.92;69.17;99340.56;5040151;28;20037;-81
2020/12/15 10:08:57;;;;;;;13.98;2.20;;;;;;;10.87;70.32;99337.50;5049736;28;20471;-82
2020/12/15 10:11:25;;;;;;;13.98;2.22;;;;;;;10.98;69.77;99345.28;5032600;28;20034;-82
2020/12/15 10:13:50;;;;;;;16.35;2.13;;;;;;;10.87;69.50;99337.50;5045629;28;20037;-83
2020/12/15 10:18:43;;;;;;;15.18;3.33;;;;;;;10.94;70.89;99346.50;5030991;28;20415;-87
2020/12/15 10:21:08;;;;;;;25.40;2.92;;;;;;;11.84;69.88;99358.72;5013644;28;20025;-87
2020/12/15 10:23:34;;;;;;;12.25;2.90;;;;;;;12.79;67.90;99357.06;5031333;28;20036;-87
2020/12/15 10:26:01;;;;;;;14.48;3.38;;;;;;;13.75;64.93;99351.44;5014397;28;20104;-87
2020/12/15 10:28:26;;;;;;;16.58;2.95;;;;;;;14.49;63.46;99359.94;5023324;28;20021;-87
2020/12/15 10:30:52;;;;;;;13.93;2.22;;;;;;;15.19;61.97;99362.50;5009691;28;20112;-87
2020/12/15 10:33:17;;;;;;;5.68;1.58;;;;;;;15.89;59.20;99363.19;5009710;28;20492;-87
2020/12/15 10:35:42;;;;;;;9.43;2.30;;;;;;;16.13;57.08;99365.00;5011595;28;20034;-86
2020/12/15 10:38:08;;;;;;;16.60;2.58;;;;;;;16.73;55.13;99369.09;5015337;28;20080;-89
2020/12/15 10:40:33;;;;;;;10.85;2.25;;;;;;;16.91;56.89;99364.44;5031709;28;20018;-89
2020/12/15 10:42:58;;;;;;;10.15;2.05;;;;;;;17.01;55.87;99359.75;5008824;28;20084;-89
2020/12/15 10:45:24;;;;;;;7.82;1.95;;;;;;;17.53;53.20;99357.53;4994497;28;20041;-91
2020/12/15 10:47:50;;;;;;;14.13;2.65;;;;;;;17.73;51.15;99360.56;5012754;28;20388;-89
2020/12/15 10:50:16;;;;;;;8.60;1.98;;;;;;;18.22;51.25;99357.56;4993652;28;20030;-88
2020/12/15 10:52:41;;;;;;;17.38;2.05;;;;;;;18.36;50.39;99358.59;4993236;28;20433;-87
2020/12/15 10:55:07;;;;;;;11.85;1.75;;;;;;;18.88;51.18;99360.44;4995055;28;20026;-87
2020/12/15 10:57:32;;;;;;;9.23;1.70;;;;;;;18.91;49.18;99367.22;5012196;28;20034;-88
2020/12/15 10:59:57;;;;;;;7.63;2.35;;;;;;;18.39;51.52;99350.28;5011263;28;20014;-87
2020/12/15 11:02:23;;;;;;;12.48;1.58;;;;;;;18.76;49.72;99361.84;5011913;28;20026;-87
2020/12/15 11:04:48;;;;;;;10.55;1.92;;;;;;;19.40;49.08;99356.78;5011023;28;20038;-88
2020/12/15 11:07:14;;;;;;;13.93;1.95;;;;;;;18.97;47.45;99355.84;5012689;28;20060;-87
2020/12/15 11:09:39;;;;;;;8.98;1.75;;;;;;;17.58;49.64;99357.84;5015915;28;20034;-88
2020/12/15 11:12:04;;;;;;;6.47;1.80;;;;;;;17.23;51.08;99352.03;5012320;28;20026;-87
2020/12/15 11:14:30;;;;;;;8.38;1.73;;;;;;;16.70;52.11;99358.81;5012566;28;20021;-87
2020/12/15 11:16:57;;;;;;;7.90;1.38;;;;;;;16.06;54.82;99364.84;5012624;28;20475;-88
2020/12/15 11:19:23;;;;;;;10.20;2.00;;;;;;;15.38;56.58;99353.47;5011852;28;20033;-87
2020/12/15 11:21:50;;;;;;;7.60;2.03;;;;;;;14.29;60.51;99359.31;5011562;28;20032;-88
2020/12/15 11:24:16;;;;;;;12.85;1.95;;;;;;;13.91;61.89;99356.03;5023236;28;20038;-87
2020/12/15 11:26:41;;;;;;;14.25;2.97;;;;;;;13.71;62.16;99362.47;5015484;28;20022;-89
2020/12/15 11:29:06;;;;;;;14.15;2.45;;;;;;;14.39;62.13;99360.03;4997342;28;20113;-88
2020/12/15 11:31:32;;;;;;;13.82;3.50;;;;;;;15.20;59.83;99373.91;5014584;28;20054;-87
2020/12/15 11:33:57;;;;;;;10.23;2.67;;;;;;;14.94;58.85;99361.56;5015016;28;20034;-88